sensor_id;sensor_type;location;lat;lon;timestamp;pressure;altitude;pressure_sealevel;temperature;humidity
44131;BME280;29792;48.726;9.248;2023-05-08T00:00:15;97144.84;;;16.05;100.00
44131;BME280;29792;48.726;9.248;2023-05-08T00:02:41;97151.78;;;16.04;100.00
44131;BME280;29792;48.726;9.248;2023-05-08T00:05:06;97149.19;;;16.04;100.00
44131;BME280;29792;48.726;9.248;2023-05-08T00:07:32;97139.97;;;16.01;100.00
44131;BME280;29792;48.726;9.248;2023-05-08T00:09:57;97145.94;;;16.02;100.00
44131;BME280;29792;48.726;9.248;2023-05-08T00:12:22;97145.13;;;16.01;100.00
44131;BME280;29792;48.726;9.248;2023-05-08T00:14:49;97140.63;;;16.03;100.00
44131;BME280;29792;48.726;9.248;2023-05-08T00:17:14;97142.41;;;16.03;100.00
44131;BME280;29792;48.726;9.248;2023-05-08T00:19:39;97140.63;;;16.03;100.00
44131;BME280;29792;48.726;9.248;2023-05-08T00:22:05;97147.72;;;16.01;100.00
44131;BME280;29792;48.726;9.248;2023-05-08T00:24:30;97143.38;;;16.02;100.00
44131;BME280;29792;48.726;9.248;2023-05-08T00:26:55;97152.09;;;16.01;100.00
44131;BME280;29792;48.726;9.248;2023-05-08T00:29:20;97152.91;;;16.01;100.00
44131;BME280;29792;48.726;9.248;2023-05-08T00:31:46;97155.78;;;15.98;100.00
44131;BME280;29792;48.726;9.248;2023-05-08T00:34:11;97152.03;;;15.93;100.00
44131;BME280;29792;48.726;9.248;2023-05-08T00:36:36;97150.22;;;15.85;100.00
44131;BME280;29792;48.726;9.248;2023-05-08T00:39:02;97150.16;;;15.77;100.00
44131;BME280;29792;48.726;9.248;2023-05-08T00:41:27;97145.91;;;15.68;100.00
44131;BME280;29792;48.726;9.248;2023-05-08T00:43:52;97146.50;;;15.62;100.00
44131;BME280;29792;48.726;9.248;2023-05-08T00:46:18;97146.81;;;15.59;100.00
44131;BME280;29792;48.726;9.248;2023-05-08T00:48:43;97152.78;;;15.59;100.00
44131;BME280;29792;48.726;9.248;2023-05-08T00:51:10;97149.38;;;15.59;100.00
44131;BME280;29792;48.726;9.248;2023-05-08T00:53:38;97154.53;;;15.59;100.00
44131;BME280;29792;48.726;9.248;2023-05-08T00:56:04;97151.16;;;15.58;100.00
44131;BME280;29792;48.726;9.248;2023-05-08T00:58:30;97148.56;;;15.58;100.00
44131;BME280;29792;48.726;9.248;2023-05-08T01:00:56;97156.97;;;15.60;100.00
44131;BME280;29792;48.726;9.248;2023-05-08T01:03:22;97156.03;;;15.61;100.00
44131;BME280;29792;48.726;9.248;2023-05-08T01:05:49;97158.47;;;15.63;100.00
44131;BME280;29792;48.726;9.248;2023-05-08T01:08:14;97165.09;;;15.65;100.00
44131;BME280;29792;48.726;9.248;2023-05-08T01:10:53;97157.19;;;15.67;100.00
44131;BME280;29792;48.726;9.248;2023-05-08T01:13:48;97164.78;;;15.69;100.00
44131;BME280;29792;48.726;9.248;2023-05-08T01:16:40;97165.59;;;15.69;100.00
44131;BME280;29792;48.726;9.248;2023-05-08T01:19:54;97166.72;;;15.67;100.00
44131;BME280;29792;48.726;9.248;2023-05-08T01:31:16;97166.91;;;15.73;100.00
44131;BME280;29792;48.726;9.248;2023-05-08T01:33:49;97177.09;;;15.75;100.00
44131;BME280;29792;48.726;9.248;2023-05-08T01:39:00;97169.81;;;15.70;100.00
44131;BME280;29792;48.726;9.248;2023-05-08T01:41:28;97168.34;;;15.68;100.00
44131;BME280;29792;48.726;9.248;2023-05-08T01:46:47;97173.44;;;15.59;100.00
44131;BME280;29792;48.726;9.248;2023-05-08T01:49:22;97178.91;;;15.56;100.00
44131;BME280;29792;48.726;9.248;2023-05-08T01:51:55;97175.94;;;15.51;100.00
44131;BME280;29792;48.726;9.248;2023-05-08T01:54:24;97173.47;;;15.50;100.00
44131;BME280;29792;48.726;9.248;2023-05-08T01:56:53;97179.59;;;15.49;100.00
44131;BME280;29792;48.726;9.248;2023-05-08T01:59:21;97186.56;;;15.48;100.00
44131;BME280;29792;48.726;9.248;2023-05-08T02:01:50;97180.59;;;15.48;100.00
44131;BME280;29792;48.726;9.248;2023-05-08T02:04:17;97180.06;;;15.44;100.00
44131;BME280;29792;48.726;9.248;2023-05-08T02:06:43;97187.81;;;15.44;100.00
44131;BME280;29792;48.726;9.248;2023-05-08T02:09:10;97179.09;;;15.45;100.00
44131;BME280;29792;48.726;9.248;2023-05-08T02:11:37;97179.59;;;15.49;100.00
44131;BME280;29792;48.726;9.248;2023-05-08T02:14:04;97177.56;;;15.52;100.00
44131;BME280;29792;48.726;9.248;2023-05-08T02:16:30;97176.63;;;15.53;100.00
44131;BME280;29792;48.726;9.248;2023-05-08T02:18:59;97178.91;;;15.56;100.00
44131;BME280;29792;48.726;9.248;2023-05-08T02:21:26;97180.38;;;15.59;100.00
44131;BME280;29792;48.726;9.248;2023-05-08T02:23:55;97182.00;;;15.60;100.00
44131;BME280;29792;48.726;9.248;2023-05-08T02:26:21;97180.22;;;15.60;100.00
44131;BME280;29792;48.726;9.248;2023-05-08T02:28:48;97182.00;;;15.60;100.00
44131;BME280;29792;48.726;9.248;2023-05-08T02:31:15;97183.47;;;15.62;100.00
44131;BME280;29792;48.726;9.248;2023-05-08T02:33:41;97189.59;;;15.61;100.00
44131;BME280;29792;48.726;9.248;2023-05-08T02:36:10;97186.22;;;15.61;100.00
44131;BME280;29792;48.726;9.248;2023-05-08T02:38:36;97197.50;;;15.60;100.00
44131;BME280;29792;48.726;9.248;2023-05-08T02:41:04;97192.31;;;15.60;100.00
44131;BME280;29792;48.726;9.248;2023-05-08T02:43:30;97191.22;;;15.62;100.00
44131;BME280;29792;48.726;9.248;2023-05-08T02:46:13;97193.13;;;15.60;100.00
44131;BME280;29792;48.726;9.248;2023-05-08T02:48:54;97190.69;;;15.59;100.00
44131;BME280;29792;48.726;9.248;2023-05-08T02:51:36;97186.50;;;15.58;100.00
44131;BME280;29792;48.726;9.248;2023-05-08T02:54:13;97193.28;;;15.59;100.00
44131;BME280;29792;48.726;9.248;2023-05-08T02:56:57;97184.56;;;15.60;100.00
44131;BME280;29792;48.726;9.248;2023-05-08T02:59:36;97189.59;;;15.61;100.00
44131;BME280;29792;48.726;9.248;2023-05-08T03:02:13;97182.81;;;15.60;100.00
44131;BME280;29792;48.726;9.248;2023-05-08T03:04:48;97182.81;;;15.60;100.00
44131;BME280;29792;48.726;9.248;2023-05-08T03:07:15;97182.00;;;15.60;100.00
44131;BME280;29792;48.726;9.248;2023-05-08T03:09:43;97174.84;;;15.54;100.00
44131;BME280;29792;48.726;9.248;2023-05-08T03:12:13;97177.03;;;15.49;100.00
44131;BME280;29792;48.726;9.248;2023-05-08T03:14:45;97178.28;;;15.45;100.00
44131;BME280;29792;48.726;9.248;2023-05-08T03:17:13;97173.28;;;15.43;100.00
44131;BME280;29792;48.726;9.248;2023-05-08T03:19:41;97175.03;;;15.43;100.00
44131;BME280;29792;48.726;9.248;2023-05-08T03:22:09;97170.56;;;15.45;100.00
44131;BME280;29792;48.726;9.248;2023-05-08T03:24:35;97181.69;;;15.45;100.00
44131;BME280;29792;48.726;9.248;2023-05-08T03:27:02;97179.41;;;15.42;100.00
44131;BME280;29792;48.726;9.248;2023-05-08T03:29:28;97179.84;;;15.38;100.00
44131;BME280;29792;48.726;9.248;2023-05-08T03:31:55;97178.22;;;15.37;100.00
44131;BME280;29792;48.726;9.248;2023-05-08T03:34:23;97179.19;;;15.36;100.00
44131;BME280;29792;48.726;9.248;2023-05-08T03:36:49;97178.22;;;15.37;100.00
44131;BME280;29792;48.726;9.248;2023-05-08T03:39:15;97178.75;;;15.40;100.00
44131;BME280;29792;48.726;9.248;2023-05-08T03:41:40;97185.38;;;15.43;100.00
44131;BME280;29792;48.726;9.248;2023-05-08T03:44:06;97185.09;;;15.46;100.00
44131;BME280;29792;48.726;9.248;2023-05-08T03:46:32;97180.59;;;15.48;100.00
44131;BME280;29792;48.726;9.248;2023-05-08T03:48:58;97186.72;;;15.47;100.00
44131;BME280;29792;48.726;9.248;2023-05-08T03:51:25;97185.91;;;15.46;100.00
44131;BME280;29792;48.726;9.248;2023-05-08T03:53:50;97192.84;;;15.46;100.00
44131;BME280;29792;48.726;9.248;2023-05-08T03:56:15;97186.72;;;15.47;100.00
44131;BME280;29792;48.726;9.248;2023-05-08T03:58:53;97182.34;;;15.47;100.00
44131;BME280;29792;48.726;9.248;2023-05-08T04:01:24;97185.09;;;15.46;100.00
44131;BME280;29792;48.726;9.248;2023-05-08T04:04:09;97187.94;;;15.43;100.00
44131;BME280;29792;48.726;9.248;2023-05-08T04:06:56;97189.88;;;15.41;100.00
44131;BME280;29792;48.726;9.248;2023-05-08T04:12:32;97188.41;;;15.38;100.00
44131;BME280;29792;48.726;9.248;2023-05-08T04:15:05;97193.03;;;15.35;100.00
44131;BME280;29792;48.726;9.248;2023-05-08T04:17:40;97197.41;;;15.34;100.00
44131;BME280;29792;48.726;9.248;2023-05-08T04:20:08;97206.91;;;15.34;100.00
44131;BME280;29792;48.726;9.248;2023-05-08T04:22:37;97201.75;;;15.34;100.00
44131;BME280;29792;48.726;9.248;2023-05-08T04:25:05;97207.72;;;15.34;100.00
44131;BME280;29792;48.726;9.248;2023-05-08T04:27:31;97216.94;;;15.37;100.00
44131;BME280;29792;48.726;9.248;2023-05-08T04:29:57;97221.97;;;15.38;100.00
44131;BME280;29792;48.726;9.248;2023-05-08T04:32:23;97211.50;;;15.40;100.00
44131;BME280;29792;48.726;9.248;2023-05-08T04:34:48;97215.53;;;15.42;100.00
44131;BME280;29792;48.726;9.248;2023-05-08T04:37:23;97215.41;;;15.44;100.00
44131;BME280;29792;48.726;9.248;2023-05-08T04:39:50;97219.47;;;15.46;100.00
44131;BME280;29792;48.726;9.248;2023-05-08T04:42:15;97218.50;;;15.47;100.00
44131;BME280;29792;48.726;9.248;2023-05-08T04:44:40;97226.06;;;15.49;100.00
44131;BME280;29792;48.726;9.248;2023-05-08T04:47:06;97225.78;;;15.52;100.00
44131;BME280;29792;48.726;9.248;2023-05-08T04:49:31;97224.72;;;15.54;100.00
44131;BME280;29792;48.726;9.248;2023-05-08T04:51:56;97228.75;;;15.57;100.00
44131;BME280;29792;48.726;9.248;2023-05-08T04:54:21;97225.22;;;15.58;100.00
44131;BME280;29792;48.726;9.248;2023-05-08T04:56:47;97226.72;;;15.60;100.00
44131;BME280;29792;48.726;9.248;2023-05-08T04:59:12;97225.75;;;15.61;100.00
44131;BME280;29792;48.726;9.248;2023-05-08T05:01:37;97225.75;;;15.61;100.00
44131;BME280;29792;48.726;9.248;2023-05-08T05:04:02;97227.66;;;15.59;100.00
44131;BME280;29792;48.726;9.248;2023-05-08T05:06:28;97230.09;;;15.61;100.00
44131;BME280;29792;48.726;9.248;2023-05-08T05:08:53;97229.97;;;15.62;100.00
44131;BME280;29792;48.726;9.248;2023-05-08T05:11:18;97235.81;;;15.64;100.00
44131;BME280;29792;48.726;9.248;2023-05-08T05:13:43;97234.66;;;15.67;100.00
44131;BME280;29792;48.726;9.248;2023-05-08T05:16:09;97234.66;;;15.67;100.00
44131;BME280;29792;48.726;9.248;2023-05-08T05:18:34;97234.81;;;15.65;100.00
44131;BME280;29792;48.726;9.248;2023-05-08T05:20:59;97239.97;;;15.65;100.00
44131;BME280;29792;48.726;9.248;2023-05-08T05:23:24;97237.41;;;15.65;100.00
44131;BME280;29792;48.726;9.248;2023-05-08T05:25:50;97237.56;;;15.64;100.00
44131;BME280;29792;48.726;9.248;2023-05-08T05:28:15;97239.47;;;15.62;100.00
44131;BME280;29792;48.726;9.248;2023-05-08T05:30:40;97247.09;;;15.63;100.00
44131;BME280;29792;48.726;9.248;2023-05-08T05:33:05;97253.69;;;15.66;100.00
44131;BME280;29792;48.726;9.248;2023-05-08T05:35:31;97247.44;;;15.69;100.00
44131;BME280;29792;48.726;9.248;2023-05-08T05:37:56;97251.66;;;15.70;100.00
44131;BME280;29792;48.726;9.248;2023-05-08T05:40:21;97256.66;;;15.71;100.00
44131;BME280;29792;48.726;9.248;2023-05-08T05:42:48;97255.72;;;15.72;100.00
44131;BME280;29792;48.726;9.248;2023-05-08T05:45:14;97256.34;;;15.74;100.00
44131;BME280;29792;48.726;9.248;2023-05-08T05:47:43;97249.41;;;15.75;100.00
44131;BME280;29792;48.726;9.248;2023-05-08T05:50:09;97256.06;;;15.77;100.00
44131;BME280;29792;48.726;9.248;2023-05-08T05:52:35;97261.38;;;15.76;100.00
44131;BME280;29792;48.726;9.248;2023-05-08T05:55:00;97258.78;;;15.76;100.00
44131;BME280;29792;48.726;9.248;2023-05-08T05:57:25;97257.97;;;15.75;100.00
44131;BME280;29792;48.726;9.248;2023-05-08T05:59:51;97259.75;;;15.75;100.00
44131;BME280;29792;48.726;9.248;2023-05-08T06:02:16;97253.13;;;15.72;100.00
44131;BME280;29792;48.726;9.248;2023-05-08T06:04:43;97254.91;;;15.72;100.00
44131;BME280;29792;48.726;9.248;2023-05-08T06:07:09;97252.16;;;15.73;100.00
44131;BME280;29792;48.726;9.248;2023-05-08T06:09:34;97253.94;;;15.73;100.00
44131;BME280;29792;48.726;9.248;2023-05-08T06:12:00;97259.13;;;15.73;100.00
44131;BME280;29792;48.726;9.248;2023-05-08T06:14:25;97260.72;;;15.74;100.00
44131;BME280;29792;48.726;9.248;2023-05-08T06:16:51;97252.97;;;15.74;100.00
44131;BME280;29792;48.726;9.248;2023-05-08T06:19:16;97257.97;;;15.75;100.00
44131;BME280;29792;48.726;9.248;2023-05-08T06:21:41;97259.59;;;15.76;100.00
44131;BME280;29792;48.726;9.248;2023-05-08T06:24:06;97260.56;;;15.75;100.00
44131;BME280;29792;48.726;9.248;2023-05-08T06:26:32;97263.00;;;15.77;100.00
44131;BME280;29792;48.726;9.248;2023-05-08T06:28:57;97271.44;;;15.79;100.00
44131;BME280;29792;48.726;9.248;2023-05-08T06:31:23;97264.34;;;15.81;100.00
44131;BME280;29792;48.726;9.248;2023-05-08T06:33:48;97265.94;;;15.82;100.00
44131;BME280;29792;48.726;9.248;2023-05-08T06:36:13;97268.25;;;15.85;100.00
44131;BME280;29792;48.726;9.248;2023-05-08T06:38:38;97267.13;;;15.87;100.00
44131;BME280;29792;48.726;9.248;2023-05-08T06:41:03;97270.06;;;15.92;100.00
44131;BME280;29792;48.726;9.248;2023-05-08T06:43:29;97276.72;;;15.95;100.00
44131;BME280;29792;48.726;9.248;2023-05-08T06:45:54;97273.00;;;15.97;100.00
44131;BME280;29792;48.726;9.248;2023-05-08T06:48:19;97276.25;;;15.99;100.00
44131;BME280;29792;48.726;9.248;2023-05-08T06:50:45;97275.97;;;16.02;100.00
44131;BME280;29792;48.726;9.248;2023-05-08T06:53:12;97283.41;;;16.06;100.00
44131;BME280;29792;48.726;9.248;2023-05-08T06:55:37;97274.56;;;16.08;100.00
44131;BME280;29792;48.726;9.248;2023-05-08T06:58:02;97273.44;;;16.11;100.00
44131;BME280;29792;48.726;9.248;2023-05-08T07:00:28;97276.03;;;16.11;100.00
44131;BME280;29792;48.726;9.248;2023-05-08T07:02:53;97275.06;;;16.12;100.00
44131;BME280;29792;48.726;9.248;2023-05-08T07:05:18;97280.75;;;16.15;100.00
44131;BME280;29792;48.726;9.248;2023-05-08T07:07:44;97278.16;;;16.15;100.00
44131;BME280;29792;48.726;9.248;2023-05-08T07:10:10;97284.81;;;16.18;100.00
44131;BME280;29792;48.726;9.248;2023-05-08T07:12:35;97281.56;;;16.16;100.00
44131;BME280;29792;48.726;9.248;2023-05-08T07:15:01;97285.28;;;16.13;100.00
44131;BME280;29792;48.726;9.248;2023-05-08T07:17:26;97282.84;;;16.12;100.00
44131;BME280;29792;48.726;9.248;2023-05-08T07:19:51;97282.16;;;16.10;100.00
44131;BME280;29792;48.726;9.248;2023-05-08T07:22:17;97287.34;;;16.10;100.00
44131;BME280;29792;48.726;9.248;2023-05-08T07:24:42;97279.88;;;16.07;100.00
44131;BME280;29792;48.726;9.248;2023-05-08T07:27:08;97293.09;;;16.03;100.00
44131;BME280;29792;48.726;9.248;2023-05-08T07:29:34;97292.44;;;16.01;100.00
44131;BME280;29792;48.726;9.248;2023-05-08T07:32:02;97292.91;;;15.97;100.00
44131;BME280;29792;48.726;9.248;2023-05-08T07:34:27;97290.47;;;15.95;100.00
44131;BME280;29792;48.726;9.248;2023-05-08T07:36:52;97293.03;;;15.95;100.00
44131;BME280;29792;48.726;9.248;2023-05-08T07:39:17;97293.03;;;15.95;100.00
44131;BME280;29792;48.726;9.248;2023-05-08T07:41:43;97296.59;;;15.94;100.00
44131;BME280;29792;48.726;9.248;2023-05-08T07:44:09;97297.53;;;15.93;100.00
44131;BME280;29792;48.726;9.248;2023-05-08T07:46:35;97295.91;;;15.92;100.00
44131;BME280;29792;48.726;9.248;2023-05-08T07:49:01;97301.06;;;15.92;100.00
44131;BME280;29792;48.726;9.248;2023-05-08T07:51:26;97303.66;;;15.92;100.00
44131;BME280;29792;48.726;9.248;2023-05-08T07:53:51;97302.72;;;15.93;100.00
44131;BME280;29792;48.726;9.248;2023-05-08T07:56:18;97306.09;;;15.94;100.00
44131;BME280;29792;48.726;9.248;2023-05-08T07:58:43;97306.91;;;15.94;100.00
44131;BME280;29792;48.726;9.248;2023-05-08T08:01:10;97308.69;;;15.94;100.00
44131;BME280;29792;48.726;9.248;2023-05-08T08:03:35;97310.19;;;15.96;100.00
44131;BME280;29792;48.726;9.248;2023-05-08T08:06:01;97303.88;;;15.99;100.00
44131;BME280;29792;48.726;9.248;2023-05-08T08:08:26;97305.34;;;16.01;100.00
44131;BME280;29792;48.726;9.248;2023-05-08T08:10:51;97311.84;;;16.06;100.00
44131;BME280;29792;48.726;9.248;2023-05-08T08:13:17;97298.63;;;16.09;100.00
44131;BME280;29792;48.726;9.248;2023-05-08T08:15:42;97305.94;;;16.13;100.00
44131;BME280;29792;48.726;9.248;2023-05-08T08:18:07;97302.22;;;16.16;100.00
44131;BME280;29792;48.726;9.248;2023-05-08T08:20:33;97306.97;;;16.20;100.00
44131;BME280;29792;48.726;9.248;2023-05-08T08:22:58;97299.69;;;16.24;100.00
44131;BME280;29792;48.726;9.248;2023-05-08T08:25:24;97307.97;;;16.27;100.00
44131;BME280;29792;48.726;9.248;2023-05-08T08:27:49;97314.78;;;16.28;100.00
44131;BME280;29792;48.726;9.248;2023-05-08T08:30:14;97318.00;;;16.30;100.00
44131;BME280;29792;48.726;9.248;2023-05-08T08:32:40;97319.78;;;16.30;100.00
44131;BME280;29792;48.726;9.248;2023-05-08T08:35:05;97323.34;;;16.29;100.00
44131;BME280;29792;48.726;9.248;2023-05-08T08:37:31;97312.19;;;16.28;100.00
44131;BME280;29792;48.726;9.248;2023-05-08T08:39:56;97318.31;;;16.27;100.00
44131;BME280;29792;48.726;9.248;2023-05-08T08:42:21;97322.00;;;16.25;100.00
44131;BME280;29792;48.726;9.248;2023-05-08T08:44:47;97317.00;;;16.23;100.00
44131;BME280;29792;48.726;9.248;2023-05-08T08:47:15;97314.53;;;16.22;100.00
44131;BME280;29792;48.726;9.248;2023-05-08T08:49:46;97318.63;;;16.24;100.00
44131;BME280;29792;48.726;9.248;2023-05-08T08:52:21;97320.38;;;16.24;100.00
44131;BME280;29792;48.726;9.248;2023-05-08T08:54:51;97317.66;;;16.25;100.00
44131;BME280;29792;48.726;9.248;2023-05-08T08:57:18;97313.81;;;16.29;100.00
44131;BME280;29792;48.726;9.248;2023-05-08T08:59:44;97318.00;;;16.30;100.00
44131;BME280;29792;48.726;9.248;2023-05-08T09:02:11;97326.28;;;16.34;100.00
44131;BME280;29792;48.726;9.248;2023-05-08T09:04:38;97322.75;;;16.35;100.00
44131;BME280;29792;48.726;9.248;2023-05-08T09:07:04;97321.72;;;16.28;100.00
44131;BME280;29792;48.726;9.248;2023-05-08T09:09:31;97322.53;;;16.28;100.00
44131;BME280;29792;48.726;9.248;2023-05-08T09:11:59;97323.34;;;16.29;100.00
44131;BME280;29792;48.726;9.248;2023-05-08T09:14:25;97324.00;;;16.31;100.00
44131;BME280;29792;48.726;9.248;2023-05-08T09:16:52;97320.44;;;16.32;100.00
44131;BME280;29792;48.726;9.248;2023-05-08T09:19:18;97325.31;;;16.35;100.00
44131;BME280;29792;48.726;9.248;2023-05-08T09:21:43;97321.47;;;16.39;100.00
44131;BME280;29792;48.726;9.248;2023-05-08T09:24:09;97322.78;;;16.43;100.00
44131;BME280;29792;48.726;9.248;2023-05-08T09:26:39;97319.88;;;16.46;100.00
44131;BME280;29792;48.726;9.248;2023-05-08T09:29:14;97322.19;;;16.49;100.00
44131;BME280;29792;48.726;9.248;2023-05-08T09:31:51;97317.53;;;16.53;100.00
44131;BME280;29792;48.726;9.248;2023-05-08T09:34:28;97314.75;;;16.54;100.00
44131;BME280;29792;48.726;9.248;2023-05-08T09:37:11;97314.47;;;16.57;100.00
44131;BME280;29792;48.726;9.248;2023-05-08T09:39:37;97314.84;;;16.62;100.00
44131;BME280;29792;48.726;9.248;2023-05-08T09:42:07;97322.16;;;16.67;100.00
44131;BME280;29792;48.726;9.248;2023-05-08T09:44:43;97325.25;;;16.70;100.00
44131;BME280;29792;48.726;9.248;2023-05-08T09:47:11;97316.53;;;16.71;100.00
44131;BME280;29792;48.726;9.248;2023-05-08T09:49:37;97327.69;;;16.72;100.00
44131;BME280;29792;48.726;9.248;2023-05-08T09:52:06;97325.63;;;16.75;100.00
44131;BME280;29792;48.726;9.248;2023-05-08T09:54:32;97322.56;;;16.80;100.00
44131;BME280;29792;48.726;9.248;2023-05-08T09:56:57;97325.50;;;16.85;100.00
44131;BME280;29792;48.726;9.248;2023-05-08T09:59:27;97324.88;;;16.91;100.00
44131;BME280;29792;48.726;9.248;2023-05-08T10:01:54;97319.22;;;16.96;100.00
44131;BME280;29792;48.726;9.248;2023-05-08T10:04:36;97323.81;;;17.02;100.00
44131;BME280;29792;48.726;9.248;2023-05-08T10:07:02;97322.53;;;17.06;100.00
44131;BME280;29792;48.726;9.248;2023-05-08T10:09:28;97330.94;;;17.08;100.00
44131;BME280;29792;48.726;9.248;2023-05-08T10:11:54;97330.63;;;17.11;100.00
44131;BME280;29792;48.726;9.248;2023-05-08T10:14:20;97330.31;;;17.14;100.00
44131;BME280;29792;48.726;9.248;2023-05-08T10:17:00;97328.53;;;17.14;100.00
44131;BME280;29792;48.726;9.248;2023-05-08T10:19:31;97326.75;;;17.15;100.00
44131;BME280;29792;48.726;9.248;2023-05-08T10:21:59;97330.31;;;17.14;100.00
44131;BME280;29792;48.726;9.248;2023-05-08T10:24:31;97330.31;;;17.14;100.00
44131;BME280;29792;48.726;9.248;2023-05-08T10:27:08;97328.06;;;17.19;100.00
44131;BME280;29792;48.726;9.248;2023-05-08T10:29:45;97330.19;;;17.24;100.00
44131;BME280;29792;48.726;9.248;2023-05-08T10:32:12;97325.88;;;17.32;100.00
44131;BME280;29792;48.726;9.248;2023-05-08T10:34:39;97327.00;;;17.38;100.00
44131;BME280;29792;48.726;9.248;2023-05-08T10:37:08;97333.31;;;17.43;100.00
44131;BME280;29792;48.726;9.248;2023-05-08T10:39:34;97328.66;;;17.47;100.00
44131;BME280;29792;48.726;9.248;2023-05-08T10:42:01;97331.75;;;17.50;100.00
44131;BME280;29792;48.726;9.248;2023-05-08T10:44:27;97327.84;;;17.54;100.00
44131;BME280;29792;48.726;9.248;2023-05-08T10:47:44;97329.00;;;17.60;100.00
44131;BME280;29792;48.726;9.248;2023-05-08T10:50:05;97328.22;;;17.68;100.00
44131;BME280;29792;48.726;9.248;2023-05-08T10:52:45;97324.38;;;17.72;100.00
44131;BME280;29792;48.726;9.248;2023-05-08T10:55:24;97323.03;;;17.68;100.00
44131;BME280;29792;48.726;9.248;2023-05-08T10:58:05;97328.06;;;17.69;100.00
44131;BME280;29792;48.726;9.248;2023-05-08T11:03:17;97319.50;;;17.77;100.00
44131;BME280;29792;48.726;9.248;2023-05-08T11:05:47;97316.28;;;17.83;100.00
44131;BME280;29792;48.726;9.248;2023-05-08T11:08:14;97320.00;;;17.88;100.00
44131;BME280;29792;48.726;9.248;2023-05-08T11:10:41;97318.91;;;17.91;100.00
44131;BME280;29792;48.726;9.248;2023-05-08T11:13:08;97313.72;;;17.91;100.00
44131;BME280;29792;48.726;9.248;2023-05-08T11:15:40;97318.56;;;17.94;100.00
44131;BME280;29792;48.726;9.248;2023-05-08T11:18:08;97324.09;;;17.99;100.00
44131;BME280;29792;48.726;9.248;2023-05-08T11:20:40;97315.50;;;17.99;100.00
44131;BME280;29792;48.726;9.248;2023-05-08T11:23:25;97316.31;;;17.99;100.00
44131;BME280;29792;48.726;9.248;2023-05-08T11:28:24;97305.94;;;17.99;100.00
44131;BME280;29792;48.726;9.248;2023-05-08T11:30:52;97315.00;;;18.03;100.00
44131;BME280;29792;48.726;9.248;2023-05-08T11:33:19;97305.94;;;18.07;100.00
44131;BME280;29792;48.726;9.248;2023-05-08T11:35:59;97308.69;;;18.14;100.00
44131;BME280;29792;48.726;9.248;2023-05-08T11:38:29;97315.16;;;18.18;100.00
44131;BME280;29792;48.726;9.248;2023-05-08T11:40:59;97304.63;;;18.19;100.00
44131;BME280;29792;48.726;9.248;2023-05-08T11:43:30;97310.94;;;18.25;100.00
44131;BME280;29792;48.726;9.248;2023-05-08T11:45:59;97308.69;;;18.30;100.00
44131;BME280;29792;48.726;9.248;2023-05-08T11:48:25;97303.31;;;18.32;100.00
44131;BME280;29792;48.726;9.248;2023-05-08T11:50:50;97302.31;;;18.33;100.00
44131;BME280;29792;48.726;9.248;2023-05-08T11:53:15;97301.03;;;18.37;100.00
44131;BME280;29792;48.726;9.248;2023-05-08T11:55:41;97300.88;;;18.38;100.00
44131;BME280;29792;48.726;9.248;2023-05-08T11:58:14;97301.53;;;18.40;100.00
44131;BME280;29792;48.726;9.248;2023-05-08T12:00:40;97302.31;;;18.41;100.00
44131;BME280;29792;48.726;9.248;2023-05-08T12:03:06;97302.50;;;18.39;100.00
44131;BME280;29792;48.726;9.248;2023-05-08T12:05:31;97310.09;;;18.41;100.00
44131;BME280;29792;48.726;9.248;2023-05-08T12:07:58;97310.09;;;18.41;100.00
44131;BME280;29792;48.726;9.248;2023-05-08T12:10:23;97313.84;;;18.38;100.00
44131;BME280;29792;48.726;9.248;2023-05-08T12:12:48;97311.41;;;18.37;100.00
44131;BME280;29792;48.726;9.248;2023-05-08T12:15:14;97307.84;;;18.38;100.00
44131;BME280;29792;48.726;9.248;2023-05-08T12:17:40;97306.72;;;18.40;100.00
44131;BME280;29792;48.726;9.248;2023-05-08T12:20:13;97302.16;;;18.42;100.00
44131;BME280;29792;48.726;9.248;2023-05-08T12:22:40;97300.38;;;18.51;100.00
44131;BME280;29792;48.726;9.248;2023-05-08T12:25:07;97304.44;;;18.61;100.00
44131;BME280;29792;48.726;9.248;2023-05-08T12:27:36;97302.63;;;18.70;100.00
44131;BME280;29792;48.726;9.248;2023-05-08T12:30:07;97302.63;;;18.78;100.00
44131;BME280;29792;48.726;9.248;2023-05-08T12:32:35;97298.69;;;18.82;100.00
44131;BME280;29792;48.726;9.248;2023-05-08T12:35:01;97304.34;;;18.94;100.00
44131;BME280;29792;48.726;9.248;2023-05-08T12:37:27;97306.75;;;19.03;100.00
44131;BME280;29792;48.726;9.248;2023-05-08T12:39:52;97293.03;;;19.18;100.00
44131;BME280;29792;48.726;9.248;2023-05-08T12:42:17;97294.59;;;19.35;100.00
44131;BME280;29792;48.726;9.248;2023-05-08T12:44:49;97294.16;;;19.54;100.00
44131;BME280;29792;48.726;9.248;2023-05-08T12:47:17;97296.66;;;19.70;100.00
44131;BME280;29792;48.726;9.248;2023-05-08T12:49:43;97287.16;;;19.86;100.00
44131;BME280;29792;48.726;9.248;2023-05-08T12:52:11;97300.63;;;20.04;100.00
44131;BME280;29792;48.726;9.248;2023-05-08T12:54:39;97294.50;;;20.19;100.00
44131;BME280;29792;48.726;9.248;2023-05-08T12:57:16;97292.28;;;20.31;100.00
44131;BME280;29792;48.726;9.248;2023-05-08T12:59:42;97292.72;;;20.43;100.00
44131;BME280;29792;48.726;9.248;2023-05-08T13:02:16;97294.34;;;20.59;100.00
44131;BME280;29792;48.726;9.248;2023-05-08T13:04:42;97297.75;;;20.59;100.00
44131;BME280;29792;48.726;9.248;2023-05-08T13:07:07;97292.25;;;20.69;100.00
44131;BME280;29792;48.726;9.248;2023-05-08T13:09:32;97293.34;;;20.89;100.00
44131;BME280;29792;48.726;9.248;2023-05-08T13:11:57;97298.72;;;21.02;100.00
44131;BME280;29792;48.726;9.248;2023-05-08T13:14:23;97284.88;;;21.02;100.00
44131;BME280;29792;48.726;9.248;2023-05-08T13:16:48;97289.84;;;20.97;99.95